sensor_id;sensor_type;location;lat;lon;timestamp;pressure;altitude;pressure_sealevel;temperature;humidity
72118;BME280;59992;47.490;8.736;2024-02-23T00:00:02;94959.05;;;5.84;99.76
72118;BME280;59992;47.490;8.736;2024-02-23T00:02:54;94955.83;;;5.86;98.71
72118;BME280;59992;47.490;8.736;2024-02-23T00:05:45;94954.00;;;5.82;98.96
72118;BME280;59992;47.490;8.736;2024-02-23T00:08:36;94952.92;;;5.81;98.67
72118;BME280;59992;47.490;8.736;2024-02-23T00:11:26;94949.08;;;5.79;98.56
72118;BME280;59992;47.490;8.736;2024-02-23T00:14:17;94946.15;;;5.77;98.96
72118;BME280;59992;47.490;8.736;2024-02-23T00:17:09;94941.33;;;5.76;98.39
72118;BME280;59992;47.490;8.736;2024-02-23T00:20:00;94937.56;;;5.73;97.53
72118;BME280;59992;47.490;8.736;2024-02-23T00:22:50;94937.31;;;5.68;97.38
72118;BME280;59992;47.490;8.736;2024-02-23T00:25:40;94941.20;;;5.66;97.08
72118;BME280;59992;47.490;8.736;2024-02-23T00:28:30;94936.34;;;5.67;96.50
72118;BME280;59992;47.490;8.736;2024-02-23T00:31:21;94933.12;;;5.70;96.84
72118;BME280;59992;47.490;8.736;2024-02-23T00:34:11;94919.08;;;5.56;95.35
72118;BME280;59992;47.490;8.736;2024-02-23T00:37:01;94927.97;;;5.63;95.60
72118;BME280;59992;47.490;8.736;2024-02-23T00:39:52;94925.21;;;5.64;95.98
72118;BME280;59992;47.490;8.736;2024-02-23T00:42:43;94923.09;;;5.63;94.30
72118;BME280;59992;47.490;8.736;2024-02-23T00:45:32;94920.15;;;5.62;95.00
72118;BME280;59992;47.490;8.736;2024-02-23T00:48:22;94915.03;;;5.57;94.22
72118;BME280;59992;47.490;8.736;2024-02-23T00:51:13;94910.83;;;5.57;93.66
72118;BME280;59992;47.490;8.736;2024-02-23T00:54:04;94913.59;;;5.56;93.87
72118;BME280;59992;47.490;8.736;2024-02-23T00:56:54;94910.34;;;5.50;93.50
72118;BME280;59992;47.490;8.736;2024-02-23T00:59:44;94918.16;;;5.53;93.62
72118;BME280;59992;47.490;8.736;2024-02-23T01:02:35;94932.95;;;5.50;93.62
72118;BME280;59992;47.490;8.736;2024-02-23T01:05:25;94938.26;;;5.49;93.89
72118;BME280;59992;47.490;8.736;2024-02-23T01:08:16;94940.81;;;5.47;93.77
72118;BME280;59992;47.490;8.736;2024-02-23T01:11:06;94938.64;;;5.50;93.35
72118;BME280;59992;47.490;8.736;2024-02-23T01:13:56;94946.23;;;5.52;93.33
72118;BME280;59992;47.490;8.736;2024-02-23T01:16:46;94960.52;;;5.54;94.04
72118;BME280;59992;47.490;8.736;2024-02-23T01:19:37;94965.39;;;5.55;92.88
72118;BME280;59992;47.490;8.736;2024-02-23T01:22:27;94978.11;;;5.59;93.63
72118;BME280;59992;47.490;8.736;2024-02-23T01:25:17;94993.23;;;5.62;93.19
72118;BME280;59992;47.490;8.736;2024-02-23T01:28:08;95023.00;;;5.66;95.38
72118;BME280;59992;47.490;8.736;2024-02-23T01:30:58;95036.92;;;5.50;96.52
72118;BME280;59992;47.490;8.736;2024-02-23T01:33:49;95038.79;;;5.38;96.65
72118;BME280;59992;47.490;8.736;2024-02-23T01:36:40;95045.32;;;5.22;96.46
72118;BME280;59992;47.490;8.736;2024-02-23T01:39:30;95052.85;;;4.98;96.68
72118;BME280;59992;47.490;8.736;2024-02-23T01:42:20;95048.95;;;4.85;96.72
72118;BME280;59992;47.490;8.736;2024-02-23T01:45:10;95047.30;;;4.56;97.41
72118;BME280;59992;47.490;8.736;2024-02-23T01:48:02;95036.20;;;4.37;96.23
72118;BME280;59992;47.490;8.736;2024-02-23T01:50:55;95035.14;;;4.23;96.71
72118;BME280;59992;47.490;8.736;2024-02-23T01:53:46;95028.67;;;4.04;96.93
72118;BME280;59992;47.490;8.736;2024-02-23T01:56:36;95025.44;;;3.96;98.44
72118;BME280;59992;47.490;8.736;2024-02-23T01:59:28;95033.39;;;3.86;98.75
72118;BME280;59992;47.490;8.736;2024-02-23T02:02:19;95030.04;;;3.77;99.07
72118;BME280;59992;47.490;8.736;2024-02-23T02:05:09;95027.30;;;3.80;98.88
72118;BME280;59992;47.490;8.736;2024-02-23T02:08:00;95012.11;;;3.76;98.92
72118;BME280;59992;47.490;8.736;2024-02-23T02:10:50;95001.62;;;3.80;98.86
72118;BME280;59992;47.490;8.736;2024-02-23T02:13:41;94995.58;;;3.82;99.60
72118;BME280;59992;47.490;8.736;2024-02-23T02:16:31;94994.28;;;3.86;99.10
72118;BME280;59992;47.490;8.736;2024-02-23T02:19:21;94987.40;;;3.87;98.37
72118;BME280;59992;47.490;8.736;2024-02-23T02:22:11;94995.59;;;3.88;98.11
72118;BME280;59992;47.490;8.736;2024-02-23T02:25:01;94982.79;;;3.88;98.26
72118;BME280;59992;47.490;8.736;2024-02-23T02:27:52;94975.22;;;3.94;98.07
72118;BME280;59992;47.490;8.736;2024-02-23T02:30:41;94976.91;;;3.98;99.10
72118;BME280;59992;47.490;8.736;2024-02-23T02:33:32;94964.96;;;4.00;99.00
72118;BME280;59992;47.490;8.736;2024-02-23T02:36:22;94952.34;;;4.02;98.94
72118;BME280;59992;47.490;8.736;2024-02-23T02:39:12;94933.36;;;4.00;98.88
72118;BME280;59992;47.490;8.736;2024-02-23T02:42:03;94922.88;;;4.01;99.76
72118;BME280;59992;47.490;8.736;2024-02-23T02:44:52;94928.48;;;4.00;99.74
72118;BME280;59992;47.490;8.736;2024-02-23T02:47:42;94932.30;;;4.01;99.94
72118;BME280;59992;47.490;8.736;2024-02-23T02:50:33;94936.73;;;4.02;99.52
72118;BME280;59992;47.490;8.736;2024-02-23T02:53:23;94942.09;;;3.98;99.99
72118;BME280;59992;47.490;8.736;2024-02-23T02:56:14;94950.04;;;3.98;99.86
72118;BME280;59992;47.490;8.736;2024-02-23T02:59:04;94950.72;;;3.99;99.95
72118;BME280;59992;47.490;8.736;2024-02-23T03:01:55;94937.11;;;3.95;99.54
72118;BME280;59992;47.490;8.736;2024-02-23T03:04:49;94937.66;;;4.04;100.00
72118;BME280;59992;47.490;8.736;2024-02-23T03:07:40;94929.02;;;4.07;100.00
72118;BME280;59992;47.490;8.736;2024-02-23T03:10:30;94927.86;;;4.11;99.99
72118;BME280;59992;47.490;8.736;2024-02-23T03:13:21;94931.80;;;4.15;100.00
72118;BME280;59992;47.490;8.736;2024-02-23T03:16:17;94937.74;;;4.17;99.94
72118;BME280;59992;47.490;8.736;2024-02-23T03:19:08;94945.73;;;4.15;99.92
72118;BME280;59992;47.490;8.736;2024-02-23T03:21:57;94950.35;;;4.13;100.00
72118;BME280;59992;47.490;8.736;2024-02-23T03:24:47;94949.09;;;4.14;100.00
72118;BME280;59992;47.490;8.736;2024-02-23T03:27:38;94948.88;;;4.15;100.00
72118;BME280;59992;47.490;8.736;2024-02-23T03:30:28;94947.70;;;4.18;100.00
72118;BME280;59992;47.490;8.736;2024-02-23T03:33:18;94949.34;;;4.15;100.00
72118;BME280;59992;47.490;8.736;2024-02-23T03:36:09;94952.77;;;4.14;100.00
72118;BME280;59992;47.490;8.736;2024-02-23T03:38:59;94944.64;;;4.19;100.00
72118;BME280;59992;47.490;8.736;2024-02-23T03:41:49;94939.14;;;4.21;100.00
72118;BME280;59992;47.490;8.736;2024-02-23T03:44:39;94943.06;;;4.24;100.00
72118;BME280;59992;47.490;8.736;2024-02-23T03:47:30;94944.80;;;4.27;100.00
72118;BME280;59992;47.490;8.736;2024-02-23T03:50:22;94948.85;;;4.26;100.00
72118;BME280;59992;47.490;8.736;2024-02-23T03:53:12;94943.95;;;4.24;100.00
72118;BME280;59992;47.490;8.736;2024-02-23T03:56:02;94934.43;;;4.23;100.00
72118;BME280;59992;47.490;8.736;2024-02-23T03:58:53;94938.55;;;4.22;100.00
72118;BME280;59992;47.490;8.736;2024-02-23T04:01:43;94934.08;;;4.17;100.00
72118;BME280;59992;47.490;8.736;2024-02-23T04:04:34;94928.55;;;4.20;100.00
72118;BME280;59992;47.490;8.736;2024-02-23T04:07:24;94927.01;;;4.22;100.00
72118;BME280;59992;47.490;8.736;2024-02-23T04:10:15;94919.95;;;4.21;100.00
72118;BME280;59992;47.490;8.736;2024-02-23T04:13:12;94918.33;;;4.22;100.00
72118;BME280;59992;47.490;8.736;2024-02-23T04:16:03;94918.17;;;4.23;100.00
72118;BME280;59992;47.490;8.736;2024-02-23T04:18:54;94913.82;;;4.22;100.00
72118;BME280;59992;47.490;8.736;2024-02-23T04:21:45;94906.19;;;4.23;100.00
72118;BME280;59992;47.490;8.736;2024-02-23T04:24:36;94914.56;;;4.22;100.00
72118;BME280;59992;47.490;8.736;2024-02-23T04:27:27;94926.59;;;4.24;100.00
72118;BME280;59992;47.490;8.736;2024-02-23T04:30:18;94933.17;;;4.26;100.00
72118;BME280;59992;47.490;8.736;2024-02-23T04:33:08;94929.66;;;4.26;100.00
72118;BME280;59992;47.490;8.736;2024-02-23T04:35:59;94933.26;;;4.25;100.00
72118;BME280;59992;47.490;8.736;2024-02-23T04:38:49;94933.09;;;4.23;100.00
72118;BME280;59992;47.490;8.736;2024-02-23T04:41:39;94932.06;;;4.24;100.00
72118;BME280;59992;47.490;8.736;2024-02-23T04:44:29;94932.64;;;4.24;100.00
72118;BME280;59992;47.490;8.736;2024-02-23T04:47:20;94933.48;;;4.18;100.00
72118;BME280;59992;47.490;8.736;2024-02-23T04:50:12;94935.88;;;4.18;100.00
72118;BME280;59992;47.490;8.736;2024-02-23T04:53:02;94947.20;;;4.20;100.00
72118;BME280;59992;47.490;8.736;2024-02-23T04:55:53;94949.16;;;4.20;100.00
72118;BME280;59992;47.490;8.736;2024-02-23T04:58:44;94946.55;;;4.21;100.00
72118;BME280;59992;47.490;8.736;2024-02-23T05:01:37;94948.03;;;4.19;100.00
72118;BME280;59992;47.490;8.736;2024-02-23T05:04:27;94945.09;;;4.18;100.00
72118;BME280;59992;47.490;8.736;2024-02-23T05:07:17;94945.91;;;4.18;100.00
72118;BME280;59992;47.490;8.736;2024-02-23T05:10:08;94951.82;;;4.17;100.00
72118;BME280;59992;47.490;8.736;2024-02-23T05:12:58;94945.73;;;4.15;100.00
72118;BME280;59992;47.490;8.736;2024-02-23T05:15:49;94947.77;;;4.16;100.00
72118;BME280;59992;47.490;8.736;2024-02-23T05:18:40;94942.58;;;4.14;100.00
72118;BME280;59992;47.490;8.736;2024-02-23T05:21:30;94940.62;;;4.14;100.00
72118;BME280;59992;47.490;8.736;2024-02-23T05:24:21;94947.59;;;4.15;100.00
72118;BME280;59992;47.490;8.736;2024-02-23T05:27:11;94953.90;;;4.15;100.00
72118;BME280;59992;47.490;8.736;2024-02-23T05:30:01;94952.06;;;4.18;100.00
72118;BME280;59992;47.490;8.736;2024-02-23T05:32:52;94946.86;;;4.17;100.00
72118;BME280;59992;47.490;8.736;2024-02-23T05:35:42;94943.84;;;4.14;100.00
72118;BME280;59992;47.490;8.736;2024-02-23T05:38:33;94944.77;;;4.15;100.00
72118;BME280;59992;47.490;8.736;2024-02-23T05:41:24;94958.97;;;4.13;100.00
72118;BME280;59992;47.490;8.736;2024-02-23T05:44:14;94958.30;;;4.13;100.00
72118;BME280;59992;47.490;8.736;2024-02-23T05:47:04;94952.77;;;4.09;100.00
72118;BME280;59992;47.490;8.736;2024-02-23T05:49:56;94943.68;;;4.05;100.00
72118;BME280;59992;47.490;8.736;2024-02-23T05:52:46;94931.59;;;3.97;100.00
72118;BME280;59992;47.490;8.736;2024-02-23T05:55:36;94934.84;;;3.98;100.00
72118;BME280;59992;47.490;8.736;2024-02-23T05:58:26;94931.67;;;3.98;100.00
72118;BME280;59992;47.490;8.736;2024-02-23T06:01:17;94925.84;;;3.93;100.00
72118;BME280;59992;47.490;8.736;2024-02-23T06:04:07;94918.94;;;3.91;100.00
72118;BME280;59992;47.490;8.736;2024-02-23T06:06:57;94921.45;;;3.87;100.00
72118;BME280;59992;47.490;8.736;2024-02-23T06:09:48;94912.83;;;3.81;100.00
72118;BME280;59992;47.490;8.736;2024-02-23T06:12:37;94922.23;;;3.84;100.00
72118;BME280;59992;47.490;8.736;2024-02-23T06:15:28;94922.27;;;3.82;100.00
72118;BME280;59992;47.490;8.736;2024-02-23T06:18:19;94919.55;;;3.80;100.00
72118;BME280;59992;47.490;8.736;2024-02-23T06:21:15;94919.40;;;3.73;100.00
72118;BME280;59992;47.490;8.736;2024-02-23T06:24:08;94934.66;;;3.79;100.00
72118;BME280;59992;47.490;8.736;2024-02-23T06:26:58;94934.08;;;3.73;100.00
72118;BME280;59992;47.490;8.736;2024-02-23T06:29:51;94939.63;;;3.80;100.00
72118;BME280;59992;47.490;8.736;2024-02-23T06:32:41;94934.67;;;3.85;100.00
72118;BME280;59992;47.490;8.736;2024-02-23T06:35:33;94925.30;;;3.84;100.00
72118;BME280;59992;47.490;8.736;2024-02-23T06:38:24;94917.98;;;3.86;100.00
72118;BME280;59992;47.490;8.736;2024-02-23T06:41:14;94921.17;;;3.84;100.00
72118;BME280;59992;47.490;8.736;2024-02-23T06:44:04;94928.23;;;3.85;100.00
72118;BME280;59992;47.490;8.736;2024-02-23T06:46:54;94925.66;;;3.89;100.00
72118;BME280;59992;47.490;8.736;2024-02-23T06:49:45;94929.00;;;3.87;100.00
72118;BME280;59992;47.490;8.736;2024-02-23T06:52:36;94944.92;;;3.84;100.00
72118;BME280;59992;47.490;8.736;2024-02-23T06:55:27;94957.08;;;3.81;100.00
72118;BME280;59992;47.490;8.736;2024-02-23T06:58:17;94949.89;;;3.81;100.00
72118;BME280;59992;47.490;8.736;2024-02-23T07:01:07;94947.48;;;3.80;100.00
72118;BME280;59992;47.490;8.736;2024-02-23T07:04:01;94939.49;;;3.76;100.00
72118;BME280;59992;47.490;8.736;2024-02-23T07:06:52;94941.26;;;3.79;100.00
72118;BME280;59992;47.490;8.736;2024-02-23T07:09:42;94951.78;;;3.77;100.00
72118;BME280;59992;47.490;8.736;2024-02-23T07:12:32;94965.94;;;3.77;100.00
72118;BME280;59992;47.490;8.736;2024-02-23T07:15:23;94969.45;;;3.83;100.00
72118;BME280;59992;47.490;8.736;2024-02-23T07:18:14;94970.09;;;3.85;100.00
72118;BME280;59992;47.490;8.736;2024-02-23T07:21:05;94979.38;;;3.91;100.00
72118;BME280;59992;47.490;8.736;2024-02-23T07:23:56;94978.43;;;3.93;100.00
72118;BME280;59992;47.490;8.736;2024-02-23T07:26:49;94979.22;;;3.91;100.00
72118;BME280;59992;47.490;8.736;2024-02-23T07:29:39;94989.29;;;3.99;100.00
72118;BME280;59992;47.490;8.736;2024-02-23T07:32:30;94980.30;;;4.05;100.00
72118;BME280;59992;47.490;8.736;2024-02-23T07:35:22;94979.08;;;4.09;100.00
72118;BME280;59992;47.490;8.736;2024-02-23T07:38:13;94984.04;;;4.11;100.00
72118;BME280;59992;47.490;8.736;2024-02-23T07:41:04;94999.28;;;4.15;100.00
72118;BME280;59992;47.490;8.736;2024-02-23T07:43:54;95003.54;;;4.19;100.00
72118;BME280;59992;47.490;8.736;2024-02-23T07:46:44;94992.12;;;4.15;100.00
72118;BME280;59992;47.490;8.736;2024-02-23T07:49:34;94997.80;;;4.27;100.00
72118;BME280;59992;47.490;8.736;2024-02-23T07:52:24;94996.02;;;4.31;100.00
72118;BME280;59992;47.490;8.736;2024-02-23T07:55:15;94994.72;;;4.33;100.00
72118;BME280;59992;47.490;8.736;2024-02-23T07:58:05;94993.02;;;4.35;100.00
72118;BME280;59992;47.490;8.736;2024-02-23T08:00:55;94999.34;;;4.37;100.00
72118;BME280;59992;47.490;8.736;2024-02-23T08:03:45;94996.54;;;4.42;100.00
72118;BME280;59992;47.490;8.736;2024-02-23T08:06:35;94994.90;;;4.50;100.00
72118;BME280;59992;47.490;8.736;2024-02-23T08:09:26;94994.45;;;4.57;99.99
72118;BME280;59992;47.490;8.736;2024-02-23T08:12:17;94986.86;;;4.64;99.42
72118;BME280;59992;47.490;8.736;2024-02-23T08:15:08;94990.27;;;4.66;98.79
72118;BME280;59992;47.490;8.736;2024-02-23T08:17:59;94991.31;;;4.73;98.05
72118;BME280;59992;47.490;8.736;2024-02-23T08:20:49;94982.59;;;4.64;92.37
72118;BME280;59992;47.490;8.736;2024-02-23T08:23:39;94988.11;;;4.68;92.86
72118;BME280;59992;47.490;8.736;2024-02-23T08:26:29;94988.94;;;4.69;92.84
72118;BME280;59992;47.490;8.736;2024-02-23T08:29:20;94981.27;;;4.74;93.61
72118;BME280;59992;47.490;8.736;2024-02-23T08:32:11;94978.81;;;4.77;92.57
72118;BME280;59992;47.490;8.736;2024-02-23T08:35:01;94981.15;;;4.76;92.47
72118;BME280;59992;47.490;8.736;2024-02-23T08:37:52;94983.27;;;4.87;93.67
72118;BME280;59992;47.490;8.736;2024-02-23T08:40:43;94981.82;;;4.92;92.63
72118;BME280;59992;47.490;8.736;2024-02-23T08:43:34;94982.11;;;4.99;92.45
72118;BME280;59992;47.490;8.736;2024-02-23T08:46:24;94980.41;;;5.05;92.97
72118;BME280;59992;47.490;8.736;2024-02-23T08:49:14;94972.05;;;5.09;92.77
72118;BME280;59992;47.490;8.736;2024-02-23T08:52:05;94972.95;;;5.18;94.32
72118;BME280;59992;47.490;8.736;2024-02-23T08:54:55;94983.19;;;5.23;95.80
72118;BME280;59992;47.490;8.736;2024-02-23T08:57:46;94980.80;;;5.33;96.82
72118;BME280;59992;47.490;8.736;2024-02-23T09:00:36;94978.13;;;5.37;95.16
72118;BME280;59992;47.490;8.736;2024-02-23T09:03:27;94980.54;;;5.40;94.55
72118;BME280;59992;47.490;8.736;2024-02-23T09:06:17;94972.71;;;5.47;94.47
72118;BME280;59992;47.490;8.736;2024-02-23T09:09:09;94971.17;;;5.53;95.51
72118;BME280;59992;47.490;8.736;2024-02-23T09:11:59;94970.50;;;5.55;91.64
72118;BME280;59992;47.490;8.736;2024-02-23T09:14:49;94972.23;;;5.56;90.68
72118;BME280;59992;47.490;8.736;2024-02-23T09:17:41;94980.06;;;5.57;87.49
72118;BME280;59992;47.490;8.736;2024-02-23T09:20:31;94978.11;;;5.59;87.89
72118;BME280;59992;47.490;8.736;2024-02-23T09:23:21;94967.55;;;5.63;88.14
72118;BME280;59992;47.490;8.736;2024-02-23T09:26:12;94961.33;;;5.65;86.79
72118;BME280;59992;47.490;8.736;2024-02-23T09:29:02;94967.98;;;5.72;88.36
72118;BME280;59992;47.490;8.736;2024-02-23T09:31:52;94963.89;;;5.77;88.03
72118;BME280;59992;47.490;8.736;2024-02-23T09:34:42;94967.80;;;5.79;85.06
72118;BME280;59992;47.490;8.736;2024-02-23T09:37:34;94968.77;;;5.80;84.38
72118;BME280;59992;47.490;8.736;2024-02-23T09:40:25;94967.21;;;5.82;84.68
72118;BME280;59992;47.490;8.736;2024-02-23T09:43:15;94959.28;;;5.85;85.16
72118;BME280;59992;47.490;8.736;2024-02-23T09:46:07;94958.57;;;5.91;83.64
72118;BME280;59992;47.490;8.736;2024-02-23T09:48:57;94956.13;;;5.97;83.78
72118;BME280;59992;47.490;8.736;2024-02-23T09:51:49;94945.61;;;6.01;84.81
72118;BME280;59992;47.490;8.736;2024-02-23T09:54:39;94941.44;;;6.06;84.69
72118;BME280;59992;47.490;8.736;2024-02-23T09:57:29;94948.73;;;6.09;84.02
72118;BME280;59992;47.490;8.736;2024-02-23T10:04:03;94945.75;;;6.17;83.06
72118;BME280;59992;47.490;8.736;2024-02-23T10:06:55;94933.35;;;6.14;80.34
72118;BME280;59992;47.490;8.736;2024-02-23T10:09:46;94937.92;;;6.13;79.59
72118;BME280;59992;47.490;8.736;2024-02-23T10:12:36;94946.48;;;6.11;78.50
72118;BME280;59992;47.490;8.736;2024-02-23T10:15:27;94944.64;;;6.17;79.93
72118;BME280;59992;47.490;8.736;2024-02-23T10:18:19;94941.33;;;6.21;81.58
72118;BME280;59992;47.490;8.736;2024-02-23T10:21:09;94942.02;;;6.26;80.03
72118;BME280;59992;47.490;8.736;2024-02-23T10:24:01;94945.67;;;6.35;82.33
72118;BME280;59992;47.490;8.736;2024-02-23T10:26:52;94952.52;;;6.38;78.98
72118;BME280;59992;47.490;8.736;2024-02-23T10:30:10;94949.74;;;6.47;79.64
72118;BME280;59992;47.490;8.736;2024-02-23T10:33:00;94950.29;;;6.53;80.44
72118;BME280;59992;47.490;8.736;2024-02-23T10:35:55;94950.30;;;6.57;82.77
72118;BME280;59992;47.490;8.736;2024-02-23T10:38:46;94951.81;;;6.59;84.49
72118;BME280;59992;47.490;8.736;2024-02-23T10:41:38;94949.48;;;6.61;85.69
72118;BME280;59992;47.490;8.736;2024-02-23T10:44:32;94939.10;;;6.61;84.83
72118;BME280;59992;47.490;8.736;2024-02-23T10:47:23;94940.30;;;6.60;84.43
72118;BME280;59992;47.490;8.736;2024-02-23T10:50:15;94947.52;;;6.61;84.19
72118;BME280;59992;47.490;8.736;2024-02-23T10:53:08;94951.89;;;6.59;79.89
72118;BME280;59992;47.490;8.736;2024-02-23T10:55:59;94956.02;;;6.58;77.81
72118;BME280;59992;47.490;8.736;2024-02-23T10:58:50;94955.27;;;6.57;77.97
72118;BME280;59992;47.490;8.736;2024-02-23T11:01:40;94952.17;;;6.60;78.51
72118;BME280;59992;47.490;8.736;2024-02-23T11:04:32;94943.10;;;6.69;84.00
72118;BME280;59992;47.490;8.736;2024-02-23T11:07:24;94936.79;;;6.72;80.17
72118;BME280;59992;47.490;8.736;2024-02-23T11:10:16;94949.89;;;6.78;78.56
72118;BME280;59992;47.490;8.736;2024-02-23T11:13:09;94950.65;;;6.84;78.81
72118;BME280;59992;47.490;8.736;2024-02-23T11:16:04;94948.85;;;6.90;80.90
72118;BME280;59992;47.490;8.736;2024-02-23T11:19:05;94945.23;;;6.99;76.88
72118;BME280;59992;47.490;8.736;2024-02-23T11:21:59;94942.45;;;7.09;76.16
72118;BME280;59992;47.490;8.736;2024-02-23T11:24:51;94934.02;;;7.15;75.16
72118;BME280;59992;47.490;8.736;2024-02-23T11:27:41;94941.16;;;7.33;75.38
72118;BME280;59992;47.490;8.736;2024-02-23T11:30:32;94938.89;;;7.45;75.22
72118;BME280;59992;47.490;8.736;2024-02-23T11:33:29;94938.42;;;7.57;75.14
72118;BME280;59992;47.490;8.736;2024-02-23T11:36:27;94931.68;;;7.71;76.90
72118;BME280;59992;47.490;8.736;2024-02-23T11:39:18;94926.01;;;7.79;78.23
72118;BME280;59992;47.490;8.736;2024-02-23T11:42:09;94922.40;;;7.80;75.94
72118;BME280;59992;47.490;8.736;2024-02-23T11:44:59;94926.98;;;7.83;68.45
72118;BME280;59992;47.490;8.736;2024-02-23T11:47:51;94920.77;;;7.93;70.20
72118;BME280;59992;47.490;8.736;2024-02-23T11:50:41;94925.73;;;8.13;79.87
72118;BME280;59992;47.490;8.736;2024-02-23T11:53:31;94915.83;;;8.23;72.45
72118;BME280;59992;47.490;8.736;2024-02-23T11:56:21;94912.61;;;8.35;72.79
72118;BME280;59992;47.490;8.736;2024-02-23T11:59:14;94906.36;;;8.35;66.33
72118;BME280;59992;47.490;8.736;2024-02-23T12:02:04;94906.73;;;8.48;71.28
72118;BME280;59992;47.490;8.736;2024-02-23T12:04:56;94907.88;;;8.60;75.13
72118;BME280;59992;47.490;8.736;2024-02-23T12:07:46;94913.52;;;8.64;72.29
72118;BME280;59992;47.490;8.736;2024-02-23T12:10:36;94902.81;;;8.61;64.30
72118;BME280;59992;47.490;8.736;2024-02-23T12:13:27;94896.96;;;8.76;73.46
72118;BME280;59992;47.490;8.736;2024-02-23T12:16:18;94887.41;;;8.91;71.82
72118;BME280;59992;47.490;8.736;2024-02-23T12:19:10;94895.14;;;9.00;68.20
72118;BME280;59992;47.490;8.736;2024-02-23T12:22:02;94894.11;;;9.14;73.08
72118;BME280;59992;47.490;8.736;2024-02-23T12:24:52;94893.75;;;9.21;67.11
72118;BME280;59992;47.490;8.736;2024-02-23T12:27:42;94895.86;;;9.29;65.04
72118;BME280;59992;47.490;8.736;2024-02-23T12:30:34;94902.43;;;9.38;71.97
72118;BME280;59992;47.490;8.736;2024-02-23T12:33:25;94898.29;;;9.37;62.75
72118;BME280;59992;47.490;8.736;2024-02-23T12:36:16;94890.05;;;9.37;62.21
72118;BME280;59992;47.490;8.736;2024-02-23T12:39:08;94891.88;;;9.43;65.21
72118;BME280;59992;47.490;8.736;2024-02-23T12:41:58;94889.05;;;9.46;63.49
72118;BME280;59992;47.490;8.736;2024-02-23T12:44:48;94883.41;;;9.43;56.50
72118;BME280;59992;47.490;8.736;2024-02-23T12:47:39;94883.39;;;9.45;58.56
72118;BME280;59992;47.490;8.736;2024-02-23T12:50:30;94879.80;;;9.50;62.19
72118;BME280;59992;47.490;8.736;2024-02-23T12:53:34;94873.34;;;9.39;60.42
72118;BME280;59992;47.490;8.736;2024-02-23T12:56:25;94870.59;;;9.34;58.17
72118;BME280;59992;47.490;8.736;2024-02-23T12:59:15;94854.85;;;9.37;65.94
72118;BME280;59992;47.490;8.736;2024-02-23T13:02:07;94857.70;;;9.52;65.71
72118;BME280;59992;47.490;8.736;2024-02-23T13:04:59;94856.96;;;9.65;66.77
72118;BME280;59992;47.490;8.736;2024-02-23T13:07:49;94853.02;;;9.72;63.30
72118;BME280;59992;47.490;8.736;2024-02-23T13:10:39;94849.36;;;9.75;64.19
72118;BME280;59992;47.490;8.736;2024-02-23T13:13:30;94842.30;;;9.83;65.30
72118;BME280;59992;47.490;8.736;2024-02-23T13:16:20;94836.96;;;9.88;58.04
72118;BME280;59992;47.490;8.736;2024-02-23T13:19:11;94841.55;;;9.90;55.78
72118;BME280;59992;47.490;8.736;2024-02-23T13:22:01;94842.73;;;9.93;54.96
72118;BME280;59992;47.490;8.736;2024-02-23T13:24:51;94840.90;;;10.06;64.41
72118;BME280;59992;47.490;8.736;2024-02-23T13:27:42;94840.34;;;10.09;56.40
72118;BME280;59992;47.490;8.736;2024-02-23T13:30:32;94846.91;;;10.16;55.34
72118;BME280;59992;47.490;8.736;2024-02-23T13:33:23;94845.54;;;10.23;63.79
72118;BME280;59992;47.490;8.736;2024-02-23T13:36:14;94842.13;;;10.23;60.70
72118;BME280;59992;47.490;8.736;2024-02-23T13:39:06;94838.58;;;10.24;57.18
72118;BME280;59992;47.490;8.736;2024-02-23T13:41:57;94836.37;;;10.24;59.05
72118;BME280;59992;47.490;8.736;2024-02-23T13:44:47;94837.08;;;10.28;59.22
72118;BME280;59992;47.490;8.736;2024-02-23T13:47:37;94831.05;;;10.31;60.28
72118;BME280;59992;47.490;8.736;2024-02-23T13:50:28;94819.11;;;10.30;56.84
72118;BME280;59992;47.490;8.736;2024-02-23T13:53:19;94814.50;;;10.30;55.76
72118;BME280;59992;47.490;8.736;2024-02-23T13:56:09;94809.55;;;10.28;59.63
72118;BME280;59992;47.490;8.736;2024-02-23T13:59:00;94805.09;;;10.27;59.19
72118;BME280;59992;47.490;8.736;2024-02-23T14:01:51;94797.87;;;10.24;58.69
72118;BME280;59992;47.490;8.736;2024-02-23T14:04:41;94797.59;;;10.10;54.78
72118;BME280;59992;47.490;8.736;2024-02-23T14:07:32;94790.33;;;10.03;58.12
72118;BME280;59992;47.490;8.736;2024-02-23T14:10:22;94791.95;;;10.08;60.22
72118;BME280;59992;47.490;8.736;2024-02-23T14:13:12;94790.23;;;10.13;58.68
72118;BME280;59992;47.490;8.736;2024-02-23T14:16:03;94789.11;;;10.17;60.61
72118;BME280;59992;47.490;8.736;2024-02-23T14:18:54;94792.27;;;10.17;58.08
72118;BME280;59992;47.490;8.736;2024-02-23T14:21:45;94793.73;;;10.05;57.89
72118;BME280;59992;47.490;8.736;2024-02-23T14:24:35;94794.23;;;9.83;58.15
72118;BME280;59992;47.490;8.736;2024-02-23T14:27:25;94794.52;;;9.71;60.73
72118;BME280;59992;47.490;8.736;2024-02-23T14:30:17;94790.77;;;9.56;61.06
72118;BME280;59992;47.490;8.736;2024-02-23T14:33:07;94783.30;;;9.42;59.97
72118;BME280;59992;47.490;8.736;2024-02-23T14:35:57;94774.35;;;9.12;56.76
72118;BME280;59992;47.490;8.736;2024-02-23T14:38:47;94773.38;;;9.03;59.15
72118;BME280;59992;47.490;8.736;2024-02-23T14:41:38;94772.58;;;8.93;57.96
72118;BME280;59992;47.490;8.736;2024-02-23T14:44:28;94774.28;;;8.88;58.62
72118;BME280;59992;47.490;8.736;2024-02-23T14:47:18;94769.58;;;8.83;59.14
72118;BME280;59992;47.490;8.736;2024-02-23T14:50:09;94757.34;;;8.77;60.70
72118;BME280;59992;47.490;8.736;2024-02-23T14:53:00;94769.27;;;8.83;60.71
72118;BME280;59992;47.490;8.736;2024-02-23T14:55:50;94765.34;;;8.85;59.76
72118;BME280;59992;47.490;8.736;2024-02-23T14:58:41;94766.95;;;8.90;59.56
72118;BME280;59992;47.490;8.736;2024-02-23T15:01:31;94758.23;;;8.92;60.63
72118;BME280;59992;47.490;8.736;2024-02-23T15:04:21;94764.10;;;9.02;59.50
72118;BME280;59992;47.490;8.736;2024-02-23T15:07:11;94763.55;;;9.13;59.59
72118;BME280;59992;47.490;8.736;2024-02-23T15:10:02;94763.02;;;9.19;58.14
72118;BME280;59992;47.490;8.736;2024-02-23T15:12:54;94763.45;;;9.28;61.22
72118;BME280;59992;47.490;8.736;2024-02-23T15:15:44;94761.80;;;9.33;61.32